Cruise inventory

RRS Frederick Russell FR13/85

Cruise summary report

Cruise Info. 
Ship name (ship code)RRS Frederick Russell (74GG)
Cruise identifierFR13/85
Cruise period1985-12-04 — 1985-12-17
StatusCompleted
Port of departureFalmouth, United Kingdom
Port of returnOban, United Kingdom
ObjectivesDeployment and recovery of current meter moorings; CTD survey; radiocaesium sampling
Chief scientistDavid J Ellett (Scottish Marine Biological Association)
Cruise reportRRS Frederick Russell FR13/85 cruise report frederick_russell13_85.pdf — access key 'C' (0.18 MB) 
Ocean/sea areas 
GeneralIrish Sea and St. George's Channel
North East Atlantic Ocean (limit 40W)
SpecificClyde Approaches/ West of Scotland
Track chartsRRS Frederick Russell FR13/85 cruise track — trk3203.html RRS Frederick Russell FR13/85 cruise track — trk3203a.html
Measurements 
Physical oceanography 
Water bottle stationsQuantity: number of stations = 119
CTD stationsQuantity: number of stations = 112
Current metersQuantity: 12
Description: 1 recovered;118 days
Chemical oceanography 
RadioactivityQuantity: number of samples = 107
Description: Cs-137
Data held at BODC 
Series/Profiles 
111  CTD/STD cast
Vertical spatial coordinates
Salinity of the water column
Temperature of the water column
Vertical spatial coordinates
Salinity of the water column
Temperature of the water column

BODC idDate/TimeLocationDoc.
2558631985-12-16 22:17 56° 52' 35" N  8° 29' 53" W  View metadata report for BODC series reference number 255863
2558751985-12-16 23:27 56° 52' 59" N  8° 30' 0" W  View metadata report for BODC series reference number 255875
2553281985-12-10 01:42 55° 11' 42" N  5° 55' 53" W  View metadata report for BODC series reference number 255328
2553411985-12-10 02:24 55° 13' 5" N  5° 51' 59" W  View metadata report for BODC series reference number 255341
2553531985-12-10 03:06 55° 15' 0" N  5° 47' 29" W  View metadata report for BODC series reference number 255353
2553651985-12-10 04:52 55° 12' 0" N  5° 27' 0" W  View metadata report for BODC series reference number 255365
2553771985-12-10 05:39 55° 8' 59" N  5° 18' 59" W  View metadata report for BODC series reference number 255377
2553891985-12-10 06:26 55° 7' 59" N  5° 12' 59" W  View metadata report for BODC series reference number 255389
2553901985-12-10 07:08 55° 6' 0" N  5° 9' 59" W  View metadata report for BODC series reference number 255390
2554081985-12-10 07:41 55° 4' 59" N  5° 3' 59" W  View metadata report for BODC series reference number 255408
2554211985-12-10 21:37 55° 35' 11" N  5° 45' 29" W  View metadata report for BODC series reference number 255421
2554331985-12-10 22:14 55° 35' 29" N  5° 48' 29" W  View metadata report for BODC series reference number 255433
2554451985-12-10 22:53 55° 36' 59" N  5° 53' 11" W  View metadata report for BODC series reference number 255445
2554571985-12-10 23:50 55° 38' 29" N  5° 57' 23" W  View metadata report for BODC series reference number 255457
2554691985-12-11 00:27 55° 39' 5" N  6° 0' 59" W  View metadata report for BODC series reference number 255469
2554701985-12-11 03:29 55° 42' 0" N  6° 21' 59" W  View metadata report for BODC series reference number 255470
2554821985-12-11 04:23 55° 36' 59" N  6° 25' 59" W  View metadata report for BODC series reference number 255482
2554941985-12-11 05:23 55° 32' 42" N  6° 34' 5" W  View metadata report for BODC series reference number 255494
2555011985-12-11 05:52 55° 32' 47" N  6° 29' 35" W  View metadata report for BODC series reference number 255501
2555131985-12-11 06:47 55° 27' 59" N  6° 32' 59" W  View metadata report for BODC series reference number 255513
2555251985-12-11 07:40 55° 22' 59" N  6° 36' 59" W  View metadata report for BODC series reference number 255525
2555371985-12-11 08:39 55° 18' 59" N  6° 40' 59" W  View metadata report for BODC series reference number 255537
2555491985-12-11 09:37 55° 13' 59" N  6° 45' 0" W  View metadata report for BODC series reference number 255549
2555501985-12-11 15:31 55° 45' 54" N  8° 0' 11" W  View metadata report for BODC series reference number 255550
2555621985-12-13 12:18 55° 45' 59" N  7° 41' 42" W  View metadata report for BODC series reference number 255562
2555741985-12-13 13:33 55° 45' 54" N  7° 29' 24" W  View metadata report for BODC series reference number 255574
2555861985-12-13 14:41 55° 45' 59" N  7° 16' 30" W  View metadata report for BODC series reference number 255586
2555981985-12-13 15:47 55° 46' 5" N  7° 4' 12" W  View metadata report for BODC series reference number 255598
2556051985-12-13 16:47 55° 45' 59" N  6° 55' 29" W  View metadata report for BODC series reference number 255605
2556171985-12-13 17:31 55° 45' 59" N  6° 46' 23" W  View metadata report for BODC series reference number 255617
2556291985-12-13 18:13 55° 45' 59" N  6° 37' 30" W  View metadata report for BODC series reference number 255629
2556301985-12-13 19:07 55° 45' 59" N  6° 31' 5" W  View metadata report for BODC series reference number 255630
2556421985-12-13 20:20 55° 52' 59" N  6° 28' 59" W  View metadata report for BODC series reference number 255642
2556541985-12-13 21:15 55° 57' 0" N  6° 34' 59" W  View metadata report for BODC series reference number 255654
2556661985-12-13 22:14 56° 0' 59" N  6° 40' 59" W  View metadata report for BODC series reference number 255666
2556781985-12-13 23:12 56° 4' 59" N  6° 46' 59" W  View metadata report for BODC series reference number 255678
2556911985-12-14 00:15 56° 9' 5" N  6° 53' 11" W  View metadata report for BODC series reference number 255691
2557091985-12-14 01:07 56° 12' 59" N  6° 58' 59" W  View metadata report for BODC series reference number 255709
2557101985-12-14 01:58 56° 16' 59" N  7° 4' 59" W  View metadata report for BODC series reference number 255710
2557221985-12-14 05:43 56° 16' 29" N  6° 5' 35" W  View metadata report for BODC series reference number 255722
2557341985-12-14 06:19 56° 13' 47" N  6° 2' 6" W  View metadata report for BODC series reference number 255734
2557461985-12-14 06:53 56° 10' 53" N  5° 59' 6" W  View metadata report for BODC series reference number 255746
2557581985-12-14 07:26 56° 7' 53" N  5° 55' 53" W  View metadata report for BODC series reference number 255758
2557711985-12-14 07:56 56° 5' 41" N  5° 53' 5" W  View metadata report for BODC series reference number 255771
2557831985-12-15 16:50 56° 39' 59" N  6° 6' 59" W  View metadata report for BODC series reference number 255783
2557951985-12-15 18:00 56° 41' 6" N  6° 16' 41" W  View metadata report for BODC series reference number 255795
2558021985-12-15 19:29 56° 43' 59" N  6° 27' 18" W  View metadata report for BODC series reference number 255802
2558141985-12-15 20:52 56° 43' 59" N  6° 45' 0" W  View metadata report for BODC series reference number 255814
2552731985-12-09 20:13 55° 8' 59" N  5° 2' 59" W  View metadata report for BODC series reference number 255273
2552851985-12-09 21:00 55° 11' 23" N  5° 11' 35" W  View metadata report for BODC series reference number 255285
2552971985-12-09 21:44 55° 12' 59" N  5° 15' 23" W  View metadata report for BODC series reference number 255297
2553041985-12-09 22:33 55° 16' 12" N  5° 24' 0" W  View metadata report for BODC series reference number 255304
2553161985-12-10 01:05 55° 9' 29" N  6° 0' 0" W  View metadata report for BODC series reference number 255316
2549401985-12-07 23:05 55° 28' 11" N  4° 45' 23" W  View metadata report for BODC series reference number 254940
2549521985-12-07 23:44 55° 27' 47" N  4° 50' 11" W  View metadata report for BODC series reference number 254952
2549641985-12-08 00:24 55° 28' 47" N  4° 54' 36" W  View metadata report for BODC series reference number 254964
2549761985-12-08 01:11 55° 28' 41" N  5° 1' 5" W  View metadata report for BODC series reference number 254976
2549881985-12-08 02:15 55° 23' 35" N  5° 5' 11" W  View metadata report for BODC series reference number 254988
2550031985-12-08 03:02 55° 22' 30" N  4° 58' 35" W  View metadata report for BODC series reference number 255003
2550151985-12-08 04:07 55° 16' 23" N  4° 56' 11" W  View metadata report for BODC series reference number 255015
2550271985-12-08 04:58 55° 19' 35" N  5° 4' 59" W  View metadata report for BODC series reference number 255027
2550391985-12-08 05:34 55° 20' 24" N  5° 8' 53" W  View metadata report for BODC series reference number 255039
2550401985-12-08 06:08 55° 22' 35" N  5° 12' 11" W  View metadata report for BODC series reference number 255040
2550521985-12-08 07:17 55° 21' 54" N  5° 27' 23" W  View metadata report for BODC series reference number 255052
2550641985-12-08 08:04 55° 19' 35" N  5° 20' 23" W  View metadata report for BODC series reference number 255064
2550761985-12-08 08:54 55° 16' 48" N  5° 12' 53" W  View metadata report for BODC series reference number 255076
2550881985-12-08 09:30 55° 14' 24" N  5° 12' 23" W  View metadata report for BODC series reference number 255088
2551071985-12-08 10:21 55° 13' 59" N  5° 3' 35" W  View metadata report for BODC series reference number 255107
2551191985-12-08 10:59 55° 13' 35" N  4° 57' 53" W  View metadata report for BODC series reference number 255119
2551201985-12-08 15:29 54° 39' 47" N  5° 30' 5" W  View metadata report for BODC series reference number 255120
2551321985-12-08 16:12 54° 42' 29" N  5° 24' 29" W  View metadata report for BODC series reference number 255132
2551441985-12-08 17:23 54° 51' 41" N  5° 19' 59" W  View metadata report for BODC series reference number 255144
2551561985-12-08 18:12 54° 43' 59" N  5° 13' 59" W  View metadata report for BODC series reference number 255156
2551681985-12-08 19:48 54° 46' 29" N  5° 9' 0" W  View metadata report for BODC series reference number 255168
2551811985-12-08 20:28 54° 51' 0" N  5° 6' 59" W  View metadata report for BODC series reference number 255181
2551931985-12-08 21:48 54° 57' 0" N  5° 12' 29" W  View metadata report for BODC series reference number 255193
2552001985-12-08 22:37 55° 1' 29" N  5° 19' 59" W  View metadata report for BODC series reference number 255200
2552121985-12-08 23:25 55° 4' 59" N  5° 24' 59" W  View metadata report for BODC series reference number 255212
2552241985-12-09 00:19 55° 9' 29" N  5° 31' 59" W  View metadata report for BODC series reference number 255224
2552361985-12-09 01:10 55° 12' 59" N  5° 36' 29" W  View metadata report for BODC series reference number 255236
2552481985-12-09 02:04 55° 16' 59" N  5° 42' 59" W  View metadata report for BODC series reference number 255248
2552611985-12-09 03:27 55° 12' 36" N  5° 27' 47" W  View metadata report for BODC series reference number 255261
2621891985-12-06 18:26 55° 30' 59" N  5° 22' 30" W  View metadata report for BODC series reference number 262189
2621901985-12-06 19:04 55° 31' 23" N  5° 26' 47" W  View metadata report for BODC series reference number 262190
2622081985-12-06 19:43 55° 34' 30" N  5° 24' 29" W  View metadata report for BODC series reference number 262208
2622211985-12-06 20:37 55° 38' 24" N  5° 25' 41" W  View metadata report for BODC series reference number 262221
2622331985-12-06 21:28 55° 44' 29" N  5° 22' 59" W  View metadata report for BODC series reference number 262233
2622451985-12-06 22:07 55° 44' 35" N  5° 22' 59" W  View metadata report for BODC series reference number 262245
2622571985-12-06 22:51 55° 44' 35" N  5° 16' 59" W  View metadata report for BODC series reference number 262257
2622691985-12-06 23:35 55° 48' 5" N  5° 14' 11" W  View metadata report for BODC series reference number 262269
2622701985-12-07 00:22 55° 49' 47" N  5° 16' 53" W  View metadata report for BODC series reference number 262270
2622821985-12-07 01:24 55° 53' 53" N  5° 23' 11" W  View metadata report for BODC series reference number 262282
2622941985-12-07 02:16 55° 58' 11" N  5° 22' 59" W  View metadata report for BODC series reference number 262294
2623011985-12-07 06:41 55° 24' 35" N  5° 20' 17" W  View metadata report for BODC series reference number 262301
2623131985-12-07 07:39 55° 19' 23" N  5° 27' 11" W  View metadata report for BODC series reference number 262313
2623251985-12-07 14:02 55° 42' 23" N  5° 9' 0" W  View metadata report for BODC series reference number 262325
2623371985-12-07 14:42 55° 42' 59" N  5° 3' 54" W  View metadata report for BODC series reference number 262337
2623491985-12-07 16:38 55° 49' 53" N  4° 58' 11" W  View metadata report for BODC series reference number 262349
2623501985-12-07 17:11 55° 50' 11" N  4° 54' 59" W  View metadata report for BODC series reference number 262350
2623621985-12-07 18:52 55° 38' 53" N  4° 54' 47" W  View metadata report for BODC series reference number 262362
2623741985-12-07 19:29 55° 37' 59" N  5° 0' 0" W  View metadata report for BODC series reference number 262374
2623861985-12-07 20:08 55° 35' 47" N  5° 4' 48" W  View metadata report for BODC series reference number 262386
2623981985-12-07 21:14 55° 33' 59" N  4° 59' 24" W  View metadata report for BODC series reference number 262398
2624051985-12-07 22:09 55° 30' 59" N  4° 52' 12" W  View metadata report for BODC series reference number 262405
2621771985-12-06 17:16 55° 27' 29" N  5° 27' 23" W  View metadata report for BODC series reference number 262177
2558871985-12-17 02:59 57° 0' 0" N  9° 0' 0" W  View metadata report for BODC series reference number 255887
2558991985-12-17 08:00 56° 43' 59" N  7° 30' 0" W  View metadata report for BODC series reference number 255899
2559061985-12-17 08:58 56° 44' 11" N  7° 19' 59" W  View metadata report for BODC series reference number 255906
2558261985-12-16 02:43 56° 43' 59" N  7° 0' 0" W  View metadata report for BODC series reference number 255826
2558381985-12-16 17:13 56° 43' 59" N  7° 39' 59" W  View metadata report for BODC series reference number 255838
2558511985-12-16 20:02 56° 46' 59" N  8° 0' 0" W  View metadata report for BODC series reference number 255851
1  Savonius rotor current meter
Moored instrument depth
Horizontal velocity of the water column (currents)
Temperature of the water column
Date and time
Moored instrument depth
Horizontal velocity of the water column (currents)
Temperature of the water column
Date and time

BODC idDate/TimeLocationDoc.
609671985-12-15 17:00  — 1986-03-21 14:30 56° 37' 0" N  6° 24' 0" W  View metadata report for BODC series reference number 60967